Time;durP1;ratioP1;P1;durP2;ratioP2;P2;SDS_P1;SDS_P2;PMS_P1;PMS_P2;Temp;Humidity;BMP_temperature;BMP_pressure;BME280_temperature;BME280_humidity;BME280_pressure;Samples;Min_cycle;Max_cycle;Signal;HPM_P1;HPM_P2
2022/04/28 00:00:14;;;;;;;3.10;1.90;;;23.60;36.90;;;;;;5031019;28;20384;-69
2022/04/28 00:02:40;;;;;;;2.20;2.00;;;23.60;36.90;;;;;;4967136;28;1832300;-69
2022/04/28 00:05:07;;;;;;;2.27;2.07;;;23.60;36.90;;;;;;5032298;28;20403;-69
2022/04/28 00:07:33;;;;;;;2.30;2.10;;;23.60;36.90;;;;;;5032424;28;20445;-68
2022/04/28 00:10:00;;;;;;;2.95;2.30;;;23.60;36.90;;;;;;5031802;28;20868;-70
2022/04/28 00:12:26;;;;;;;2.60;1.90;;;23.50;37.40;;;;;;5030429;28;20399;-69
2022/04/28 00:14:52;;;;;;;3.15;2.20;;;23.60;36.80;;;;;;5031799;28;20395;-69
2022/04/28 00:17:18;;;;;;;2.70;2.00;;;23.60;36.90;;;;;;5031201;28;20911;-69
2022/04/28 00:19:43;;;;;;;2.83;2.00;;;23.60;36.80;;;;;;5031922;28;20430;-70
2022/04/28 00:22:09;;;;;;;2.17;1.97;;;23.50;36.80;;;;;;5032480;28;20387;-69
2022/04/28 00:24:34;;;;;;;2.78;2.05;;;23.50;36.80;;;;;;5031602;28;20785;-69
2022/04/28 00:27:00;;;;;;;3.25;2.10;;;23.50;36.80;;;;;;5031595;28;20859;-69
2022/04/28 00:29:26;;;;;;;2.38;1.95;;;23.50;36.80;;;;;;5031384;28;20391;-69
2022/04/28 00:31:52;;;;;;;2.60;2.00;;;23.50;36.80;;;;;;5031593;28;20387;-69
2022/04/28 00:34:17;;;;;;;2.00;1.80;;;23.50;36.70;;;;;;5031909;28;20398;-69
2022/04/28 00:36:43;;;;;;;3.00;2.17;;;23.50;36.70;;;;;;5031418;28;20442;-69
2022/04/28 00:39:08;;;;;;;2.17;1.97;;;23.60;36.80;;;;;;5030905;28;20395;-69
2022/04/28 00:41:34;;;;;;;3.45;2.00;;;23.50;36.70;;;;;;5031309;28;20415;-69
2022/04/28 00:44:00;;;;;;;3.10;2.20;;;23.60;36.80;;;;;;5031435;28;20465;-69
2022/04/28 00:46:26;;;;;;;3.03;2.00;;;23.50;36.70;;;;;;5031275;28;20405;-70
2022/04/28 00:51:36;;;;;;;2.70;1.70;;;23.50;36.70;;;;;;5031576;28;20533;-69
2022/04/28 00:54:03;;;;;;;2.50;2.08;;;23.50;36.70;;;;;;5031391;28;20541;-69
2022/04/28 00:56:30;;;;;;;2.90;1.90;;;23.50;36.60;;;;;;5034679;28;20395;-69
2022/04/28 00:59:02;;;;;;;3.38;1.95;;;23.50;36.60;;;;;;5036077;28;20883;-69
2022/04/28 01:01:31;;;;;;;2.72;2.00;;;23.50;36.70;;;;;;5035053;28;21056;-69
2022/04/28 01:03:57;;;;;;;2.50;1.95;;;23.50;36.60;;;;;;5035869;28;20391;-69
2022/04/28 01:06:23;;;;;;;3.20;2.00;;;23.50;36.70;;;;;;5035328;28;20425;-68
2022/04/28 01:08:49;;;;;;;2.50;1.80;;;23.50;36.70;;;;;;5035110;28;20427;-69
2022/04/28 01:11:19;;;;;;;2.10;1.83;;;23.50;36.70;;;;;;5034685;28;20391;-69
2022/04/28 01:13:45;;;;;;;2.40;1.85;;;23.50;36.70;;;;;;5035472;28;20422;-69
2022/04/28 01:16:13;;;;;;;2.88;1.90;;;23.50;36.70;;;;;;5035139;28;20867;-69
2022/04/28 01:18:39;;;;;;;2.60;1.75;;;23.40;36.70;;;;;;5035073;28;20427;-69
2022/04/28 01:21:06;;;;;;;2.55;1.70;;;23.50;36.70;;;;;;5035007;28;20871;-66
2022/04/28 01:23:33;;;;;;;2.30;1.90;;;23.40;36.60;;;;;;5034101;28;20403;-69
2022/04/28 01:25:59;;;;;;;3.30;1.98;;;23.40;36.60;;;;;;5034979;28;20383;-68
2022/04/28 01:28:27;;;;;;;2.78;1.90;;;23.40;36.70;;;;;;5034906;28;20405;-69
2022/04/28 01:30:53;;;;;;;2.17;1.73;;;23.40;36.70;;;;;;5034777;28;20383;-69
2022/04/28 01:33:19;;;;;;;3.42;2.03;;;23.40;36.60;;;;;;5034220;28;20391;-69
2022/04/28 01:35:44;;;;;;;2.22;1.80;;;23.40;36.70;;;;;;5034581;28;20748;-69
2022/04/28 01:38:10;;;;;;;2.80;1.90;;;23.40;36.70;;;;;;5034614;28;20587;-69
2022/04/28 01:40:36;;;;;;;2.10;1.70;;;23.40;36.70;;;;;;5034688;28;20859;-69
2022/04/28 01:43:01;;;;;;;2.58;1.90;;;23.40;36.70;;;;;;5034344;28;20403;-69
2022/04/28 01:45:27;;;;;;;2.77;1.77;;;23.40;36.70;;;;;;5034207;28;20864;-69
2022/04/28 01:47:53;;;;;;;3.05;1.90;;;23.40;36.70;;;;;;5034939;28;20390;-69
2022/04/28 01:50:18;;;;;;;2.43;1.73;;;23.40;36.70;;;;;;5033174;28;20468;-69
2022/04/28 01:55:30;;;;;;;2.03;1.70;;;23.40;36.60;;;;;;5034522;28;20432;-69
2022/04/28 01:57:59;;;;;;;2.50;1.90;;;23.40;36.60;;;;;;5034196;28;20442;-68
2022/04/28 02:00:26;;;;;;;2.20;1.70;;;23.40;36.60;;;;;;5034163;28;20434;-69
2022/04/28 02:02:51;;;;;;;2.45;1.90;;;23.40;36.60;;;;;;5032845;28;20426;-69
2022/04/28 02:05:17;;;;;;;2.20;1.90;;;23.30;36.60;;;;;;5033569;28;20379;-69
2022/04/28 02:07:44;;;;;;;2.80;1.53;;;23.30;36.60;;;;;;5033804;28;20505;-69
2022/04/28 02:10:10;;;;;;;2.00;1.70;;;23.30;36.60;;;;;;5034423;28;20387;-69
2022/04/28 02:12:37;;;;;;;2.50;1.85;;;23.30;36.50;;;;;;5034013;28;20388;-69
2022/04/28 02:15:03;;;;;;;2.03;1.65;;;23.30;36.50;;;;;;5033818;28;20437;-68
2022/04/28 02:17:33;;;;;;;2.25;1.65;;;23.40;36.50;;;;;;5033485;28;20871;-69
2022/04/28 02:20:06;;;;;;;2.67;1.67;;;23.30;36.40;;;;;;5033976;28;20393;-70
2022/04/28 02:22:32;;;;;;;2.90;1.60;;;23.30;36.50;;;;;;5032508;28;20494;-68
2022/04/28 02:24:58;;;;;;;2.10;1.60;;;23.40;36.50;;;;;;5032509;28;20395;-68
2022/04/28 02:27:24;;;;;;;3.37;1.73;;;23.30;36.50;;;;;;5033305;28;20904;-69
2022/04/28 02:29:51;;;;;;;2.10;1.70;;;23.30;36.50;;;;;;5033620;28;20452;-69
2022/04/28 02:32:17;;;;;;;2.10;1.90;;;23.30;36.50;;;;;;5033679;28;20443;-69
2022/04/28 02:34:42;;;;;;;1.80;1.60;;;23.30;36.50;;;;;;5033984;28;20399;-69
2022/04/28 02:37:08;;;;;;;2.42;1.70;;;23.30;36.50;;;;;;5033173;28;20403;-69
2022/04/28 02:39:34;;;;;;;1.70;1.60;;;23.30;36.50;;;;;;5033364;28;20433;-69
2022/04/28 02:42:00;;;;;;;1.90;1.70;;;23.30;36.50;;;;;;5033494;28;20384;-69
2022/04/28 02:44:25;;;;;;;2.00;1.67;;;23.30;36.50;;;;;;5033419;28;20863;-69
2022/04/28 02:46:51;;;;;;;2.63;1.67;;;23.30;36.60;;;;;;5032298;28;20410;-70
2022/04/28 02:49:17;;;;;;;2.67;1.90;;;23.30;36.50;;;;;;5032851;28;20399;-69
2022/04/28 02:51:43;;;;;;;2.20;1.70;;;23.20;36.40;;;;;;5033267;28;20383;-69
2022/04/28 02:54:09;;;;;;;2.70;1.75;;;23.30;36.50;;;;;;5033210;28;20398;-69
2022/04/28 02:56:35;;;;;;;2.40;1.67;;;23.30;36.40;;;;;;5033271;28;20387;-69
2022/04/28 02:59:01;;;;;;;2.23;1.80;;;23.30;36.40;;;;;;5033888;28;20536;-69
2022/04/28 03:01:27;;;;;;;2.25;1.70;;;23.30;36.40;;;;;;5033376;28;20876;-69
2022/04/28 03:03:54;;;;;;;2.05;1.70;;;23.30;36.40;;;;;;5033668;28;20391;-69
2022/04/28 03:11:51;;;;;;;2.33;1.80;;;23.30;36.50;;;;;;5033070;28;20445;-69
2022/04/28 03:14:17;;;;;;;2.53;1.80;;;23.30;36.50;;;;;;5031632;28;20456;-69
2022/04/28 03:16:42;;;;;;;2.92;1.80;;;23.20;36.50;;;;;;5032795;28;20787;-69
2022/04/28 03:19:08;;;;;;;1.87;1.70;;;23.30;36.50;;;;;;5032600;28;20478;-68
2022/04/28 03:21:34;;;;;;;2.38;1.80;;;23.20;36.40;;;;;;5033787;28;20419;-69
2022/04/28 03:24:00;;;;;;;2.10;1.70;;;23.20;36.40;;;;;;5032809;28;20784;-69
2022/04/28 03:26:27;;;;;;;1.83;1.60;;;23.20;36.40;;;;;;5032821;28;20391;-69
2022/04/28 03:28:52;;;;;;;2.03;1.70;;;23.20;36.40;;;;;;5032560;28;20410;-69
2022/04/28 03:31:18;;;;;;;2.20;1.75;;;23.20;36.40;;;;;;5032072;28;20391;-69
2022/04/28 03:33:44;;;;;;;2.20;1.73;;;23.20;36.40;;;;;;5032478;28;20497;-69
2022/04/28 03:39:10;;;;;;;2.17;1.58;;;23.20;36.40;;;;;;5030096;28;20399;-68
2022/04/28 03:41:36;;;;;;;2.03;1.60;;;23.20;36.40;;;;;;5031705;28;20410;-69
2022/04/28 03:44:02;;;;;;;2.30;1.85;;;23.20;36.40;;;;;;5032233;28;20387;-69
2022/04/28 03:46:27;;;;;;;2.13;1.77;;;23.20;36.40;;;;;;5030874;28;20402;-69
2022/04/28 03:48:53;;;;;;;2.33;1.58;;;23.10;36.40;;;;;;5032205;28;20474;-70
2022/04/28 03:51:19;;;;;;;3.05;1.60;;;23.10;36.40;;;;;;5032127;28;20398;-69
2022/04/28 03:53:44;;;;;;;2.60;1.70;;;23.20;36.40;;;;;;5032815;28;20412;-70
2022/04/28 03:56:10;;;;;;;1.67;1.50;;;23.10;36.40;;;;;;5030952;28;20433;-69
2022/04/28 03:58:36;;;;;;;2.17;1.70;;;23.10;36.40;;;;;;5033451;28;20414;-69
2022/04/28 04:01:01;;;;;;;3.03;1.55;;;23.10;36.40;;;;;;5030539;28;20907;-69
2022/04/28 04:03:27;;;;;;;2.33;1.70;;;23.10;36.40;;;;;;5031426;28;20445;-69
2022/04/28 04:05:53;;;;;;;1.98;1.70;;;23.10;36.40;;;;;;5031942;28;20860;-69
2022/04/28 04:08:18;;;;;;;2.90;1.90;;;23.10;36.40;;;;;;5030814;28;20406;-69
2022/04/28 04:10:44;;;;;;;2.72;1.60;;;23.10;36.40;;;;;;5031846;28;20391;-69
2022/04/28 04:13:10;;;;;;;2.92;1.85;;;23.10;36.40;;;;;;5032389;28;20400;-69
2022/04/28 04:15:35;;;;;;;2.58;1.70;;;23.10;36.30;;;;;;5032646;28;20418;-68
2022/04/28 04:18:02;;;;;;;2.70;1.67;;;23.10;36.30;;;;;;5031559;28;20419;-69
2022/04/28 04:20:28;;;;;;;2.00;1.77;;;23.10;36.30;;;;;;5031883;28;20383;-70
2022/04/28 04:22:54;;;;;;;1.73;1.50;;;23.10;36.30;;;;;;5031767;28;20387;-69
2022/04/28 04:25:20;;;;;;;3.63;1.90;;;23.10;36.30;;;;;;5031167;28;20387;-69
2022/04/28 04:27:46;;;;;;;2.72;1.77;;;23.10;36.20;;;;;;5031707;28;20398;-69
2022/04/28 04:32:57;;;;;;;4.40;1.90;;;23.20;37.70;;;;;;5052912;28;20488;-69
2022/04/28 04:35:23;;;;;;;4.30;1.65;;;23.20;37.60;;;;;;5070346;28;20478;-69
2022/04/28 04:37:50;;;;;;;4.72;1.90;;;23.30;37.50;;;;;;5071347;28;20412;-69
2022/04/28 04:40:16;;;;;;;2.80;1.90;;;23.30;37.20;;;;;;5071298;28;20384;-69
2022/04/28 04:42:41;;;;;;;2.90;1.77;;;23.40;38.00;;;;;;5071696;28;20456;-70
2022/04/28 04:45:08;;;;;;;3.78;1.70;;;23.40;37.60;;;;;;5073322;28;20380;-67
2022/04/28 04:47:34;;;;;;;5.45;1.80;;;23.40;37.50;;;;;;5071085;28;20391;-71
2022/04/28 04:50:00;;;;;;;2.88;1.70;;;23.40;37.40;;;;;;5073836;28;20421;-69
2022/04/28 04:52:26;;;;;;;4.35;1.90;;;23.50;37.30;;;;;;5072688;28;20437;-70
2022/04/28 04:54:51;;;;;;;4.37;1.87;;;23.50;37.50;;;;;;5071285;28;20399;-69
2022/04/28 04:57:17;;;;;;;3.20;2.10;;;23.50;37.70;;;;;;5057853;28;20408;-69
2022/04/28 04:59:43;;;;;;;6.60;1.70;;;23.60;37.20;;;;;;5055245;28;20403;-69
2022/04/28 05:02:08;;;;;;;4.00;1.90;;;23.50;37.90;;;;;;5069302;28;20815;-69
2022/04/28 05:04:34;;;;;;;2.60;1.77;;;23.60;38.90;;;;;;5070629;28;20453;-69
2022/04/28 05:07:00;;;;;;;6.57;1.93;;;23.70;38.70;;;;;;5070874;28;20470;-71
2022/04/28 05:09:26;;;;;;;4.70;1.90;;;23.70;39.10;;;;;;5070402;28;20423;-70
2022/04/28 05:11:52;;;;;;;4.72;1.92;;;23.80;38.50;;;;;;5070586;28;20904;-71
2022/04/28 05:14:17;;;;;;;3.67;1.60;;;23.80;38.40;;;;;;5069313;28;20483;-70
2022/04/28 05:16:43;;;;;;;2.50;1.88;;;23.80;38.50;;;;;;5057940;28;20396;-70
2022/04/28 05:19:08;;;;;;;4.22;2.00;;;23.90;38.40;;;;;;5046855;28;20414;-68
2022/04/28 05:21:34;;;;;;;6.70;1.73;;;23.90;39.10;;;;;;5047496;28;20393;-68
2022/04/28 05:24:00;;;;;;;4.18;1.67;;;23.90;38.70;;;;;;5050666;28;20415;-71
2022/04/28 05:26:25;;;;;;;3.77;1.70;;;23.90;38.40;;;;;;5047232;28;20951;-66
2022/04/28 05:28:51;;;;;;;6.10;1.70;;;23.90;38.40;;;;;;5050422;28;20480;-69
2022/04/28 05:31:17;;;;;;;5.25;1.95;;;23.90;38.40;;;;;;5045054;28;20490;-69
2022/04/28 05:33:42;;;;;;;3.37;1.80;;;23.80;38.60;;;;;;5030496;28;20426;-69
2022/04/28 05:36:09;;;;;;;5.45;1.90;;;23.90;38.80;;;;;;5030552;28;20383;-68
2022/04/28 05:38:37;;;;;;;4.43;1.80;;;23.90;39.80;;;;;;5030607;28;20415;-69
2022/04/28 05:41:04;;;;;;;4.82;1.90;;;23.80;39.20;;;;;;5031001;28;20422;-67
2022/04/28 05:46:14;;;;;;;6.37;1.90;;;23.80;38.30;;;;;;5046129;28;20508;-70
2022/04/28 05:48:40;;;;;;;5.47;1.73;;;23.80;38.40;;;;;;5045653;28;20390;-70
2022/04/28 05:51:06;;;;;;;4.87;2.00;;;23.80;37.60;;;;;;5040839;28;20976;-70
2022/04/28 05:53:31;;;;;;;6.65;2.10;;;23.80;38.00;;;;;;5041822;28;20436;-70
2022/04/28 05:55:57;;;;;;;2.90;1.90;;;23.80;38.10;;;;;;5048806;28;20790;-70
2022/04/28 05:58:23;;;;;;;3.80;2.00;;;23.80;37.90;;;;;;5047394;28;20409;-70
2022/04/28 06:00:48;;;;;;;3.92;2.08;;;23.90;38.00;;;;;;5051703;28;20885;-70
2022/04/28 06:03:14;;;;;;;4.83;2.10;;;23.90;37.80;;;;;;5054074;28;20398;-70
2022/04/28 06:05:40;;;;;;;8.52;2.22;;;23.90;38.30;;;;;;5053432;28;20788;-66
2022/04/28 06:08:06;;;;;;;3.53;2.00;;;23.90;38.20;;;;;;5053806;28;20854;-70
2022/04/28 06:10:31;;;;;;;6.17;1.97;;;23.90;37.90;;;;;;5053535;28;20389;-70
2022/04/28 06:12:57;;;;;;;4.43;2.03;;;23.90;37.50;;;;;;5051924;28;20500;-70
2022/04/28 06:15:23;;;;;;;3.77;1.87;;;24.00;37.40;;;;;;5053209;28;20413;-70
2022/04/28 06:17:48;;;;;;;4.25;1.90;;;24.00;37.20;;;;;;5053383;28;20401;-75
2022/04/28 06:20:14;;;;;;;4.47;2.03;;;24.00;37.00;;;;;;5051274;28;20500;-72
2022/04/28 06:22:40;;;;;;;5.45;1.80;;;24.00;36.80;;;;;;5051552;28;20417;-70
2022/04/28 06:25:06;;;;;;;4.13;1.90;;;24.00;36.80;;;;;;5052045;28;20402;-70
2022/04/28 06:27:31;;;;;;;3.78;1.90;;;24.00;36.70;;;;;;5053082;28;20392;-71
2022/04/28 06:29:57;;;;;;;6.50;2.20;;;24.00;36.70;;;;;;5051971;28;20393;-70
2022/04/28 06:32:23;;;;;;;3.50;1.80;;;24.00;36.60;;;;;;5053216;28;20877;-69
2022/04/28 06:34:49;;;;;;;5.17;2.07;;;24.10;36.70;;;;;;5053264;28;20916;-69
2022/04/28 06:37:15;;;;;;;3.80;1.70;;;24.10;36.60;;;;;;5053152;28;20398;-72
2022/04/28 06:39:41;;;;;;;2.83;1.92;;;24.10;37.10;;;;;;5052624;28;20394;-71
2022/04/28 06:42:07;;;;;;;2.95;1.80;;;24.10;36.50;;;;;;5053177;28;20385;-69
2022/04/28 06:44:33;;;;;;;2.47;1.90;;;24.20;36.50;;;;;;5052902;28;20836;-72
2022/04/28 06:46:59;;;;;;;2.90;1.90;;;24.20;36.40;;;;;;5053055;28;20842;-71
2022/04/28 06:49:25;;;;;;;2.70;1.73;;;24.20;36.40;;;;;;5052269;28;20464;-70
2022/04/28 06:51:51;;;;;;;2.90;1.92;;;24.20;36.40;;;;;;5052564;28;20494;-72
2022/04/28 06:54:17;;;;;;;2.90;1.75;;;24.20;36.40;;;;;;5051152;28;20433;-69
2022/04/28 06:56:42;;;;;;;2.95;1.85;;;24.20;36.50;;;;;;5052182;28;20381;-70
2022/04/28 06:59:08;;;;;;;3.53;1.87;;;24.10;36.50;;;;;;5052680;28;20413;-72
2022/04/28 07:01:33;;;;;;;2.67;1.70;;;24.10;36.60;;;;;;5051579;28;20401;-70
2022/04/28 07:03:59;;;;;;;2.58;2.10;;;24.10;36.60;;;;;;5052525;28;20435;-70
2022/04/28 07:06:25;;;;;;;4.37;2.00;;;24.10;36.60;;;;;;5051088;28;20420;-70
2022/04/28 07:08:50;;;;;;;3.60;1.95;;;24.10;36.60;;;;;;5052491;28;20874;-70
2022/04/28 07:11:16;;;;;;;2.60;1.93;;;24.10;36.60;;;;;;5052317;28;20389;-70
2022/04/28 07:13:42;;;;;;;3.25;1.90;;;24.20;36.50;;;;;;5051786;28;20417;-70
2022/04/28 07:16:07;;;;;;;3.43;2.00;;;24.10;36.50;;;;;;5052308;28;20382;-70
2022/04/28 07:18:33;;;;;;;3.65;1.80;;;24.20;36.50;;;;;;5052210;28;20470;-69
2022/04/28 07:21:03;;;;;;;4.22;1.77;;;24.20;36.50;;;;;;5052301;28;20866;-69
2022/04/28 07:23:30;;;;;;;2.70;1.88;;;24.20;36.40;;;;;;5051706;28;20386;-71
2022/04/28 07:25:56;;;;;;;2.65;1.55;;;24.20;36.30;;;;;;5051960;28;20390;-69
2022/04/28 07:28:22;;;;;;;2.07;1.70;;;24.20;36.40;;;;;;5051928;28;20397;-70
2022/04/28 07:30:48;;;;;;;2.70;1.60;;;24.20;36.30;;;;;;5052042;28;20400;-69
2022/04/28 07:33:14;;;;;;;2.97;1.70;;;24.20;36.50;;;;;;5051817;28;20394;-69
2022/04/28 07:35:39;;;;;;;4.65;2.22;;;24.20;36.40;;;;;;5051351;28;20482;-70
2022/04/28 07:38:06;;;;;;;5.60;2.00;;;24.20;36.70;;;;;;5051576;28;20425;-72
2022/04/28 07:40:32;;;;;;;4.97;2.03;;;24.20;36.90;;;;;;5050476;28;21091;-70
2022/04/28 07:42:58;;;;;;;6.00;2.00;;;24.30;36.30;;;;;;5050747;28;20386;-70
2022/04/28 07:45:24;;;;;;;5.60;2.10;;;24.30;36.90;;;;;;5051552;28;20904;-70
2022/04/28 07:47:50;;;;;;;5.38;2.30;;;24.40;36.00;;;;;;5050184;28;20402;-71
2022/04/28 07:50:16;;;;;;;6.80;2.22;;;24.40;36.70;;;;;;5051408;28;20389;-71
2022/04/28 07:52:43;;;;;;;5.32;2.00;;;24.40;36.60;;;;;;5051773;28;20398;-72
2022/04/28 07:55:10;;;;;;;5.82;2.00;;;24.40;36.50;;;;;;5051891;28;20424;-71
2022/04/28 07:57:37;;;;;;;6.32;1.95;;;24.50;36.40;;;;;;5049709;28;20754;-69
2022/04/28 08:00:07;;;;;;;7.00;2.00;;;24.50;36.50;;;;;;5051360;28;20389;-72
2022/04/28 08:02:36;;;;;;;5.40;1.88;;;24.50;36.40;;;;;;5051238;28;20775;-70
2022/04/28 08:05:03;;;;;;;4.25;2.05;;;24.50;36.10;;;;;;5051087;28;20854;-69
2022/04/28 08:07:29;;;;;;;6.90;1.88;;;24.50;35.90;;;;;;5050878;28;20435;-71
2022/04/28 08:09:55;;;;;;;5.07;2.10;;;24.50;36.10;;;;;;5049901;28;20397;-73
2022/04/28 08:12:20;;;;;;;5.18;2.17;;;24.50;36.50;;;;;;5060255;28;20748;-72
2022/04/28 08:14:46;;;;;;;6.57;2.20;;;24.50;35.90;;;;;;5050764;28;20415;-73
2022/04/28 08:17:12;;;;;;;5.35;2.10;;;24.50;35.60;;;;;;5050284;28;20405;-74
2022/04/28 08:19:37;;;;;;;10.23;2.20;;;24.50;35.80;;;;;;5052393;28;20404;-73
2022/04/28 08:22:03;;;;;;;7.83;2.37;;;24.50;36.10;;;;;;5056077;28;20804;-71
2022/04/28 08:24:29;;;;;;;5.68;2.03;;;24.50;36.00;;;;;;5056349;28;20930;-73
2022/04/28 08:26:54;;;;;;;7.57;2.30;;;24.50;36.40;;;;;;5056227;28;20880;-72
2022/04/28 08:29:22;;;;;;;5.88;2.40;;;24.50;36.80;;;;;;5053475;28;20754;-73
2022/04/28 08:31:47;;;;;;;7.18;2.40;;;24.60;36.60;;;;;;5053540;28;20397;-74
2022/04/28 08:34:14;;;;;;;6.13;2.37;;;24.60;37.20;;;;;;5054558;28;20396;-73
2022/04/28 08:36:40;;;;;;;7.27;2.20;;;24.60;37.20;;;;;;5055140;28;20447;-73
2022/04/28 08:39:06;;;;;;;8.52;2.20;;;24.60;37.20;;;;;;5055643;28;20434;-74
2022/04/28 08:41:37;;;;;;;7.45;2.30;;;24.60;37.40;;;;;;5051408;28;20481;-74
2022/04/28 08:44:05;;;;;;;6.10;2.22;;;24.60;37.10;;;;;;5052449;28;20416;-75
2022/04/28 08:49:20;;;;;;;7.15;2.20;;;24.60;37.10;;;;;;5051743;28;20447;-73
2022/04/28 08:51:46;;;;;;;9.93;2.50;;;24.60;36.90;;;;;;5050578;28;20461;-73
2022/04/28 08:54:13;;;;;;;5.80;2.45;;;24.60;37.00;;;;;;5066445;28;20425;-75
2022/04/28 08:56:39;;;;;;;5.93;2.50;;;24.60;37.30;;;;;;5042351;28;20421;-74
2022/04/28 08:59:08;;;;;;;8.07;2.63;;;24.60;37.10;;;;;;5041048;28;20446;-73
2022/04/28 09:01:34;;;;;;;10.40;2.50;;;24.60;37.10;;;;;;5038359;28;20393;-73
2022/04/28 09:04:02;;;;;;;8.93;2.50;;;24.60;37.20;;;;;;5039035;28;20403;-75
2022/04/28 09:06:34;;;;;;;7.63;2.38;;;24.60;36.90;;;;;;5048835;28;20407;-74
2022/04/28 09:09:01;;;;;;;5.50;2.25;;;24.60;36.70;;;;;;5039668;28;20750;-75
2022/04/28 09:11:29;;;;;;;13.68;3.10;;;24.60;36.90;;;;;;5038679;28;20394;-70
2022/04/28 09:14:11;;;;;;;10.82;2.70;;;24.50;37.90;;;;;;5039546;28;20437;-78
2022/04/28 09:16:45;;;;;;;12.63;2.50;;;24.50;37.40;;;;;;5035030;28;20894;-74
2022/04/28 09:19:24;;;;;;;7.87;2.30;;;24.60;37.60;;;;;;5051564;28;20427;-76
2022/04/28 09:21:57;;;;;;;7.13;2.20;;;24.60;37.70;;;;;;5034581;28;20468;-76
2022/04/28 09:24:24;;;;;;;8.38;2.53;;;24.70;37.40;;;;;;5051233;28;20756;-77
2022/04/28 09:26:54;;;;;;;10.70;2.50;;;24.70;37.30;;;;;;5035878;28;20387;-76
2022/04/28 09:29:21;;;;;;;11.13;2.58;;;24.70;37.30;;;;;;5051032;28;20962;-75
2022/04/28 09:31:49;;;;;;;13.43;2.67;;;24.70;36.50;;;;;;5035285;28;20475;-77
2022/04/28 09:34:20;;;;;;;8.20;2.40;;;24.70;37.20;;;;;;5051792;28;20444;-75
2022/04/28 09:36:47;;;;;;;9.10;2.50;;;24.80;36.90;;;;;;5054608;28;20374;-76
2022/04/28 09:42:29;;;;;;;6.77;2.63;;;24.80;36.30;;;;;;5054785;28;20420;-78
2022/04/28 09:44:54;;;;;;;5.20;2.38;;;24.70;35.20;;;;;;5056290;28;20396;-74
2022/04/28 09:47:21;;;;;;;9.55;2.33;;;24.70;35.50;;;;;;5054132;28;20385;-73
2022/04/28 09:49:52;;;;;;;9.57;2.50;;;24.80;35.30;;;;;;5052571;28;20393;-75
2022/04/28 09:52:31;;;;;;;6.55;2.50;;;24.70;35.50;;;;;;5052818;28;20409;-74
2022/04/28 09:54:59;;;;;;;17.10;2.83;;;24.70;35.80;;;;;;5054114;28;20394;-74
2022/04/28 09:57:25;;;;;;;13.82;2.80;;;24.70;35.70;;;;;;5053786;28;20409;-74
2022/04/28 09:59:56;;;;;;;13.55;2.67;;;24.70;35.50;;;;;;5053395;28;20401;-74
2022/04/28 10:02:25;;;;;;;11.90;2.80;;;24.80;35.40;;;;;;5053728;28;20410;-74
2022/04/28 10:04:52;;;;;;;9.77;2.63;;;24.80;35.50;;;;;;5053755;28;20390;-74
2022/04/28 10:07:20;;;;;;;6.60;2.50;;;24.80;35.50;;;;;;5053779;28;20385;-74
2022/04/28 10:09:51;;;;;;;28.38;5.30;;;24.70;35.30;;;;;;5053046;28;21151;-75
2022/04/28 10:12:22;;;;;;;22.13;4.70;;;24.70;35.50;;;;;;5053948;28;20397;-74
2022/04/28 10:14:50;;;;;;;16.90;3.85;;;24.60;35.60;;;;;;5052646;28;20792;-74
2022/04/28 10:17:21;;;;;;;10.60;3.30;;;24.70;35.30;;;;;;5053197;28;20401;-74
2022/04/28 10:20:07;;;;;;;6.68;2.53;;;24.70;35.20;;;;;;5053015;28;20393;-74
2022/04/28 10:22:35;;;;;;;8.95;2.85;;;24.70;35.30;;;;;;5043953;28;20389;-74
2022/04/28 10:33:24;;;;;;;9.55;2.83;;;24.70;35.00;;;;;;5033293;28;20381;-74
2022/04/28 10:35:50;;;;;;;6.63;2.70;;;24.70;35.00;;;;;;5032933;28;20402;-75
2022/04/28 10:38:26;;;;;;;5.33;2.50;;;24.70;35.00;;;;;;5033501;28;20411;-74
2022/04/28 10:41:01;;;;;;;5.32;2.80;;;24.70;34.90;;;;;;5033398;28;20470;-75
2022/04/28 10:43:33;;;;;;;7.57;2.70;;;24.80;35.00;;;;;;5034235;28;20398;-75
2022/04/28 10:46:24;;;;;;;6.13;2.80;;;24.70;35.00;;;;;;5046487;28;20402;-73
2022/04/28 10:48:59;;;;;;;6.70;2.72;;;24.70;34.80;;;;;;5040818;28;20482;-74
2022/04/28 10:51:27;;;;;;;6.63;2.70;;;24.70;34.90;;;;;;5030831;28;20494;-73
2022/04/28 10:54:11;;;;;;;4.40;2.58;;;24.70;35.00;;;;;;5031896;28;20384;-73
2022/04/28 10:56:50;;;;;;;5.15;2.42;;;24.70;35.00;;;;;;5036883;28;20473;-66
2022/04/28 10:59:34;;;;;;;7.32;2.60;;;24.70;35.10;;;;;;5041374;28;20421;-73
2022/04/28 11:02:15;;;;;;;9.13;3.10;;;24.70;34.90;;;;;;5032494;28;20427;-73
2022/04/28 11:04:52;;;;;;;10.55;2.80;;;24.60;34.60;;;;;;5032626;28;20391;-72
2022/04/28 11:07:24;;;;;;;7.20;2.73;;;24.70;34.60;;;;;;5064387;22;20443;-65
2022/04/28 11:10:07;;;;;;;6.38;2.60;;;24.80;35.40;;;;;;5067078;22;20818;-74
2022/04/28 11:12:42;;;;;;;6.03;2.80;;;24.80;35.30;;;;;;5051933;28;20943;-71
2022/04/28 11:15:14;;;;;;;13.23;3.25;;;24.80;35.20;;;;;;5055492;28;20427;-74
2022/04/28 11:17:43;;;;;;;8.97;2.90;;;24.80;35.40;;;;;;5067434;28;20515;-70
2022/04/28 11:20:14;;;;;;;9.13;3.05;;;24.90;36.00;;;;;;5046298;28;20483;-78
2022/04/28 11:22:44;;;;;;;8.48;3.08;;;24.80;35.80;;;;;;5046872;28;20945;-79
2022/04/28 11:25:15;;;;;;;8.35;2.90;;;24.90;35.60;;;;;;5059735;28;20416;-67
2022/04/28 11:27:42;;;;;;;6.57;2.70;;;24.90;35.40;;;;;;5053423;28;20414;-72
2022/04/28 11:30:27;;;;;;;9.07;3.22;;;25.00;35.80;;;;;;5052110;28;21102;-71
2022/04/28 11:32:57;;;;;;;9.37;3.30;;;25.00;35.50;;;;;;5049895;28;20399;-72
2022/04/28 11:35:28;;;;;;;7.50;2.88;;;25.00;35.50;;;;;;5038434;28;20462;-71
2022/04/28 11:37:55;;;;;;;15.57;3.70;;;25.10;35.50;;;;;;5053700;28;20440;-70
2022/04/28 11:40:22;;;;;;;7.57;3.23;;;25.10;35.40;;;;;;5050107;28;20427;-69
2022/04/28 11:42:59;;;;;;;8.23;3.10;;;25.00;34.90;;;;;;5051595;28;20451;-71
2022/04/28 11:45:26;;;;;;;9.35;2.95;;;25.10;35.10;;;;;;5050981;28;20390;-71
2022/04/28 11:47:55;;;;;;;7.72;3.28;;;25.10;35.00;;;;;;5050584;28;20923;-71
2022/04/28 11:50:24;;;;;;;12.50;4.00;;;25.10;34.90;;;;;;5050402;28;20876;-71
2022/04/28 11:53:09;;;;;;;12.80;3.40;;;25.10;34.80;;;;;;5051836;28;20397;-71
2022/04/28 11:55:38;;;;;;;8.47;3.03;;;25.10;34.70;;;;;;5050262;28;20393;-65
2022/04/28 11:58:05;;;;;;;7.85;3.17;;;25.10;34.60;;;;;;5049009;28;20414;-67
2022/04/28 12:00:46;;;;;;;8.53;3.20;;;25.10;34.50;;;;;;5059016;28;20409;-70
2022/04/28 12:03:30;;;;;;;6.13;3.00;;;25.10;34.60;;;;;;5039692;28;20438;-70
2022/04/28 12:05:56;;;;;;;8.45;3.08;;;25.10;34.60;;;;;;5041194;28;20964;-71
2022/04/28 12:08:24;;;;;;;5.95;2.80;;;25.20;34.60;;;;;;5043104;28;20474;-71
2022/04/28 12:16:23;;;;;;;5.95;2.63;;;25.10;34.50;;;;;;5041358;28;20410;-69
2022/04/28 12:21:42;;;;;;;5.55;2.60;;;25.10;34.20;;;;;;5041906;28;20428;-72
2022/04/28 12:24:12;;;;;;;5.03;2.60;;;25.10;34.20;;;;;;5041448;28;20396;-67
2022/04/28 12:26:41;;;;;;;4.95;2.80;;;25.10;33.90;;;;;;5040890;28;20476;-73
2022/04/28 12:29:12;;;;;;;6.10;2.40;;;25.10;34.80;;;;;;5042231;28;20386;-73
2022/04/28 12:31:38;;;;;;;5.60;2.80;;;25.10;34.00;;;;;;5037398;28;20394;-71
2022/04/28 12:34:19;;;;;;;3.40;2.20;;;25.20;34.10;;;;;;5030656;28;20905;-72
2022/04/28 12:36:50;;;;;;;4.75;2.63;;;25.20;34.00;;;;;;5031069;28;20387;-73
2022/04/28 12:39:21;;;;;;;3.35;2.30;;;25.30;34.00;;;;;;5038451;28;20432;-69
2022/04/28 12:41:47;;;;;;;4.88;2.40;;;25.20;34.20;;;;;;5045719;28;20385;-72
2022/04/28 12:44:13;;;;;;;5.40;2.50;;;25.10;34.20;;;;;;5039049;28;20497;-73
2022/04/28 12:46:45;;;;;;;6.35;2.63;;;25.20;34.30;;;;;;5040645;28;20398;-74
2022/04/28 12:49:12;;;;;;;4.22;2.42;;;25.30;34.10;;;;;;5040937;28;20472;-72
2022/04/28 12:51:48;;;;;;;4.78;2.35;;;25.30;34.20;;;;;;5043509;28;20401;-66
2022/04/28 12:54:20;;;;;;;3.97;2.50;;;25.30;34.20;;;;;;5044396;28;20759;-73
2022/04/28 12:56:54;;;;;;;5.18;2.40;;;25.30;34.20;;;;;;5052468;28;20377;-72
2022/04/28 12:59:27;;;;;;;4.57;2.40;;;25.40;34.20;;;;;;5054991;28;20469;-73
2022/04/28 13:01:54;;;;;;;4.22;2.33;;;25.40;34.10;;;;;;5054493;28;20431;-72
2022/04/28 13:04:24;;;;;;;5.45;2.50;;;25.40;34.10;;;;;;5054887;28;20401;-72
2022/04/28 13:06:51;;;;;;;3.53;2.25;;;25.40;34.30;;;;;;5058215;28;20401;-72
2022/04/28 13:09:19;;;;;;;2.80;2.25;;;25.30;34.40;;;;;;5044454;28;20482;-72
2022/04/28 13:11:47;;;;;;;3.40;2.50;;;25.30;34.10;;;;;;5046714;28;20417;-66
2022/04/28 13:14:18;;;;;;;5.72;2.20;;;25.30;34.40;;;;;;5053381;28;20538;-72
2022/04/28 13:16:46;;;;;;;5.30;2.33;;;25.50;34.70;;;;;;5054805;28;20480;-72
2022/04/28 13:19:13;;;;;;;9.63;2.40;;;25.40;34.20;;;;;;5053186;28;20413;-70
2022/04/28 13:21:40;;;;;;;4.85;2.08;;;25.80;34.70;;;;;;5054528;28;20393;-70
2022/04/28 13:24:07;;;;;;;5.47;2.17;;;26.00;34.20;;;;;;5054416;28;21014;-70
2022/04/28 13:26:33;;;;;;;4.70;2.20;;;26.20;33.90;;;;;;5054587;28;20435;-69
2022/04/28 13:28:59;;;;;;;4.68;2.38;;;26.40;33.90;;;;;;5054717;28;20476;-70